sensor_id;sensor_type;location;lat;lon;timestamp;P1;durP1;ratioP1;P2;durP2;ratioP2
77854;SDS011;67046;50.088;14.336;2023-04-22T00:00:25;12.60;;;9.50;;
77854;SDS011;67046;50.088;14.336;2023-04-22T00:01:17;12.20;;;8.40;;
77854;SDS011;67046;50.088;14.336;2023-04-22T00:01:49;10.30;;;7.90;;
77854;SDS011;67046;50.088;14.336;2023-04-22T00:02:21;13.20;;;8.30;;
77854;SDS011;67046;50.088;14.336;2023-04-22T00:02:54;12.00;;;8.40;;
77854;SDS011;67046;50.088;14.336;2023-04-22T00:03:26;12.10;;;8.50;;
77854;SDS011;67046;50.088;14.336;2023-04-22T00:03:59;12.70;;;8.10;;
77854;SDS011;67046;50.088;14.336;2023-04-22T00:04:31;12.30;;;8.20;;
77854;SDS011;67046;50.088;14.336;2023-04-22T00:05:04;12.60;;;8.50;;
77854;SDS011;67046;50.088;14.336;2023-04-22T00:05:37;14.40;;;9.10;;
77854;SDS011;67046;50.088;14.336;2023-04-22T00:06:10;10.40;;;7.70;;
77854;SDS011;67046;50.088;14.336;2023-04-22T00:06:42;10.60;;;8.20;;
77854;SDS011;67046;50.088;14.336;2023-04-22T00:07:14;15.90;;;8.50;;
77854;SDS011;67046;50.088;14.336;2023-04-22T00:07:46;11.50;;;8.20;;
77854;SDS011;67046;50.088;14.336;2023-04-22T00:08:19;13.20;;;8.50;;
77854;SDS011;67046;50.088;14.336;2023-04-22T00:08:51;11.70;;;8.90;;
77854;SDS011;67046;50.088;14.336;2023-04-22T00:09:23;11.20;;;8.00;;
77854;SDS011;67046;50.088;14.336;2023-04-22T00:09:55;12.80;;;8.20;;
77854;SDS011;67046;50.088;14.336;2023-04-22T00:10:27;14.70;;;8.00;;
77854;SDS011;67046;50.088;14.336;2023-04-22T00:10:58;10.80;;;7.70;;
77854;SDS011;67046;50.088;14.336;2023-04-22T00:11:31;14.10;;;9.20;;
77854;SDS011;67046;50.088;14.336;2023-04-22T00:12:03;11.60;;;8.20;;
77854;SDS011;67046;50.088;14.336;2023-04-22T00:12:35;10.10;;;8.40;;
77854;SDS011;67046;50.088;14.336;2023-04-22T00:13:07;13.30;;;8.50;;
77854;SDS011;67046;50.088;14.336;2023-04-22T00:13:39;11.40;;;8.60;;
77854;SDS011;67046;50.088;14.336;2023-04-22T00:14:11;10.80;;;8.70;;
77854;SDS011;67046;50.088;14.336;2023-04-22T00:14:43;11.90;;;9.00;;
77854;SDS011;67046;50.088;14.336;2023-04-22T00:15:15;12.20;;;8.30;;
77854;SDS011;67046;50.088;14.336;2023-04-22T00:15:50;13.50;;;9.00;;
77854;SDS011;67046;50.088;14.336;2023-04-22T00:16:22;11.60;;;8.40;;
77854;SDS011;67046;50.088;14.336;2023-04-22T00:16:56;12.40;;;8.30;;
77854;SDS011;67046;50.088;14.336;2023-04-22T00:17:28;11.80;;;8.80;;
77854;SDS011;67046;50.088;14.336;2023-04-22T00:18:00;12.30;;;8.60;;
77854;SDS011;67046;50.088;14.336;2023-04-22T00:18:33;12.90;;;8.80;;
77854;SDS011;67046;50.088;14.336;2023-04-22T00:19:06;13.80;;;8.10;;
77854;SDS011;67046;50.088;14.336;2023-04-22T00:19:38;12.90;;;9.30;;
77854;SDS011;67046;50.088;14.336;2023-04-22T00:20:11;12.30;;;9.10;;
77854;SDS011;67046;50.088;14.336;2023-04-22T00:20:43;13.60;;;8.30;;
77854;SDS011;67046;50.088;14.336;2023-04-22T00:21:15;13.50;;;8.60;;
77854;SDS011;67046;50.088;14.336;2023-04-22T00:21:47;14.20;;;8.60;;
77854;SDS011;67046;50.088;14.336;2023-04-22T00:22:19;12.60;;;8.70;;
77854;SDS011;67046;50.088;14.336;2023-04-22T00:22:51;11.70;;;8.30;;
77854;SDS011;67046;50.088;14.336;2023-04-22T00:23:23;13.10;;;9.10;;
77854;SDS011;67046;50.088;14.336;2023-04-22T00:23:55;11.50;;;8.60;;
77854;SDS011;67046;50.088;14.336;2023-04-22T00:24:27;11.50;;;8.50;;
77854;SDS011;67046;50.088;14.336;2023-04-22T00:25:00;10.20;;;8.20;;
77854;SDS011;67046;50.088;14.336;2023-04-22T00:25:32;11.90;;;8.80;;
77854;SDS011;67046;50.088;14.336;2023-04-22T00:26:04;12.90;;;8.10;;
77854;SDS011;67046;50.088;14.336;2023-04-22T00:26:36;15.70;;;8.80;;
77854;SDS011;67046;50.088;14.336;2023-04-22T00:27:08;10.00;;;8.20;;
77854;SDS011;67046;50.088;14.336;2023-04-22T00:27:40;9.80;;;7.80;;
77854;SDS011;67046;50.088;14.336;2023-04-22T00:28:12;12.80;;;8.00;;
77854;SDS011;67046;50.088;14.336;2023-04-22T00:29:16;11.60;;;8.20;;
77854;SDS011;67046;50.088;14.336;2023-04-22T00:29:48;11.80;;;7.90;;
77854;SDS011;67046;50.088;14.336;2023-04-22T00:30:20;9.20;;;7.70;;
77854;SDS011;67046;50.088;14.336;2023-04-22T00:30:52;11.80;;;8.20;;
77854;SDS011;67046;50.088;14.336;2023-04-22T00:31:24;13.80;;;8.10;;
77854;SDS011;67046;50.088;14.336;2023-04-22T00:31:56;12.20;;;7.70;;
77854;SDS011;67046;50.088;14.336;2023-04-22T00:32:28;11.70;;;8.20;;
77854;SDS011;67046;50.088;14.336;2023-04-22T00:33:00;12.00;;;7.80;;
77854;SDS011;67046;50.088;14.336;2023-04-22T00:33:32;10.00;;;8.50;;
77854;SDS011;67046;50.088;14.336;2023-04-22T00:34:04;12.20;;;8.40;;
77854;SDS011;67046;50.088;14.336;2023-04-22T00:34:36;12.50;;;8.30;;
77854;SDS011;67046;50.088;14.336;2023-04-22T00:35:08;11.10;;;8.40;;
77854;SDS011;67046;50.088;14.336;2023-04-22T00:35:40;14.70;;;8.60;;
77854;SDS011;67046;50.088;14.336;2023-04-22T00:36:12;9.70;;;7.80;;
77854;SDS011;67046;50.088;14.336;2023-04-22T00:36:44;14.60;;;8.80;;
77854;SDS011;67046;50.088;14.336;2023-04-22T00:37:17;12.80;;;8.10;;
77854;SDS011;67046;50.088;14.336;2023-04-22T00:37:49;10.10;;;7.90;;
77854;SDS011;67046;50.088;14.336;2023-04-22T00:38:21;12.90;;;8.70;;
77854;SDS011;67046;50.088;14.336;2023-04-22T00:38:53;12.30;;;8.40;;
77854;SDS011;67046;50.088;14.336;2023-04-22T00:39:25;10.20;;;8.70;;
77854;SDS011;67046;50.088;14.336;2023-04-22T00:39:57;13.10;;;8.70;;
77854;SDS011;67046;50.088;14.336;2023-04-22T00:40:29;13.20;;;8.60;;
77854;SDS011;67046;50.088;14.336;2023-04-22T00:41:01;11.60;;;8.70;;
77854;SDS011;67046;50.088;14.336;2023-04-22T00:41:34;11.40;;;9.00;;
77854;SDS011;67046;50.088;14.336;2023-04-22T00:42:06;11.60;;;8.30;;
77854;SDS011;67046;50.088;14.336;2023-04-22T00:42:38;10.10;;;7.80;;
77854;SDS011;67046;50.088;14.336;2023-04-22T00:43:11;10.70;;;8.40;;
77854;SDS011;67046;50.088;14.336;2023-04-22T00:44:15;9.60;;;7.80;;
77854;SDS011;67046;50.088;14.336;2023-04-22T00:44:48;15.80;;;9.30;;
77854;SDS011;67046;50.088;14.336;2023-04-22T00:45:22;11.70;;;8.70;;
77854;SDS011;67046;50.088;14.336;2023-04-22T00:45:57;12.70;;;8.90;;
77854;SDS011;67046;50.088;14.336;2023-04-22T00:46:29;11.00;;;8.30;;
77854;SDS011;67046;50.088;14.336;2023-04-22T00:47:01;11.50;;;9.40;;
77854;SDS011;67046;50.088;14.336;2023-04-22T00:47:34;12.50;;;9.20;;
77854;SDS011;67046;50.088;14.336;2023-04-22T00:48:07;12.50;;;8.10;;
77854;SDS011;67046;50.088;14.336;2023-04-22T00:48:39;12.60;;;9.00;;
77854;SDS011;67046;50.088;14.336;2023-04-22T00:49:12;10.30;;;8.80;;
77854;SDS011;67046;50.088;14.336;2023-04-22T00:49:45;12.90;;;9.10;;
77854;SDS011;67046;50.088;14.336;2023-04-22T00:50:19;15.50;;;9.70;;
77854;SDS011;67046;50.088;14.336;2023-04-22T00:50:51;11.00;;;9.00;;
77854;SDS011;67046;50.088;14.336;2023-04-22T00:51:23;11.60;;;8.50;;
77854;SDS011;67046;50.088;14.336;2023-04-22T00:51:55;11.00;;;8.80;;
77854;SDS011;67046;50.088;14.336;2023-04-22T00:52:27;11.60;;;8.50;;
77854;SDS011;67046;50.088;14.336;2023-04-22T00:52:59;11.20;;;8.40;;
77854;SDS011;67046;50.088;14.336;2023-04-22T00:53:31;10.30;;;8.80;;
77854;SDS011;67046;50.088;14.336;2023-04-22T00:54:03;14.30;;;9.40;;
77854;SDS011;67046;50.088;14.336;2023-04-22T00:54:36;12.50;;;8.90;;
77854;SDS011;67046;50.088;14.336;2023-04-22T00:55:09;12.00;;;8.80;;
77854;SDS011;67046;50.088;14.336;2023-04-22T00:55:42;14.40;;;8.70;;
77854;SDS011;67046;50.088;14.336;2023-04-22T00:56:13;11.80;;;8.60;;
77854;SDS011;67046;50.088;14.336;2023-04-22T00:56:46;13.60;;;8.70;;
77854;SDS011;67046;50.088;14.336;2023-04-22T00:57:18;11.20;;;8.40;;
77854;SDS011;67046;50.088;14.336;2023-04-22T00:57:50;10.80;;;8.20;;
77854;SDS011;67046;50.088;14.336;2023-04-22T00:58:24;11.80;;;9.30;;
77854;SDS011;67046;50.088;14.336;2023-04-22T00:58:59;11.20;;;8.70;;
77854;SDS011;67046;50.088;14.336;2023-04-22T00:59:31;11.60;;;9.10;;
77854;SDS011;67046;50.088;14.336;2023-04-22T01:00:04;13.20;;;9.40;;
77854;SDS011;67046;50.088;14.336;2023-04-22T01:00:37;13.00;;;9.60;;
77854;SDS011;67046;50.088;14.336;2023-04-22T01:01:09;13.40;;;9.10;;
77854;SDS011;67046;50.088;14.336;2023-04-22T01:01:41;15.10;;;9.20;;
77854;SDS011;67046;50.088;14.336;2023-04-22T01:02:13;12.20;;;9.30;;
77854;SDS011;67046;50.088;14.336;2023-04-22T01:02:46;12.00;;;9.00;;
77854;SDS011;67046;50.088;14.336;2023-04-22T01:03:18;13.70;;;9.20;;
77854;SDS011;67046;50.088;14.336;2023-04-22T01:03:52;12.30;;;8.80;;
77854;SDS011;67046;50.088;14.336;2023-04-22T01:04:24;12.20;;;9.30;;
77854;SDS011;67046;50.088;14.336;2023-04-22T01:05:29;12.40;;;8.80;;
77854;SDS011;67046;50.088;14.336;2023-04-22T01:06:02;12.60;;;8.60;;
77854;SDS011;67046;50.088;14.336;2023-04-22T01:06:34;10.00;;;8.30;;
77854;SDS011;67046;50.088;14.336;2023-04-22T01:07:08;16.20;;;9.90;;
77854;SDS011;67046;50.088;14.336;2023-04-22T01:07:39;11.70;;;9.60;;
77854;SDS011;67046;50.088;14.336;2023-04-22T01:08:11;12.00;;;9.40;;
77854;SDS011;67046;50.088;14.336;2023-04-22T01:08:43;14.00;;;9.50;;
77854;SDS011;67046;50.088;14.336;2023-04-22T01:09:17;13.40;;;9.50;;
77854;SDS011;67046;50.088;14.336;2023-04-22T01:09:50;12.60;;;9.20;;
77854;SDS011;67046;50.088;14.336;2023-04-22T01:10:55;11.80;;;8.10;;
77854;SDS011;67046;50.088;14.336;2023-04-22T01:11:28;12.30;;;8.00;;
77854;SDS011;67046;50.088;14.336;2023-04-22T01:12:00;12.20;;;8.10;;
77854;SDS011;67046;50.088;14.336;2023-04-22T01:12:33;13.30;;;9.10;;
77854;SDS011;67046;50.088;14.336;2023-04-22T01:13:05;11.80;;;9.10;;
77854;SDS011;67046;50.088;14.336;2023-04-22T01:13:37;12.00;;;8.40;;
77854;SDS011;67046;50.088;14.336;2023-04-22T01:14:09;14.60;;;8.90;;
77854;SDS011;67046;50.088;14.336;2023-04-22T01:14:41;11.30;;;9.20;;
77854;SDS011;67046;50.088;14.336;2023-04-22T01:15:45;10.30;;;8.20;;
77854;SDS011;67046;50.088;14.336;2023-04-22T01:16:18;13.20;;;8.60;;
77854;SDS011;67046;50.088;14.336;2023-04-22T01:16:50;10.50;;;7.80;;
77854;SDS011;67046;50.088;14.336;2023-04-22T01:17:26;11.10;;;8.00;;
77854;SDS011;67046;50.088;14.336;2023-04-22T01:18:32;11.20;;;7.70;;
77854;SDS011;67046;50.088;14.336;2023-04-22T01:19:04;10.90;;;8.10;;
77854;SDS011;67046;50.088;14.336;2023-04-22T01:19:37;15.90;;;9.40;;
77854;SDS011;67046;50.088;14.336;2023-04-22T01:20:41;12.70;;;7.60;;
77854;SDS011;67046;50.088;14.336;2023-04-22T01:21:13;15.90;;;9.30;;
77854;SDS011;67046;50.088;14.336;2023-04-22T01:21:45;11.80;;;8.90;;
77854;SDS011;67046;50.088;14.336;2023-04-22T01:22:20;12.80;;;9.20;;
77854;SDS011;67046;50.088;14.336;2023-04-22T01:22:53;14.10;;;9.10;;
77854;SDS011;67046;50.088;14.336;2023-04-22T01:23:28;13.30;;;9.10;;
77854;SDS011;67046;50.088;14.336;2023-04-22T01:24:00;9.70;;;8.60;;
77854;SDS011;67046;50.088;14.336;2023-04-22T01:24:33;12.50;;;8.90;;
77854;SDS011;67046;50.088;14.336;2023-04-22T01:25:05;15.50;;;9.30;;
77854;SDS011;67046;50.088;14.336;2023-04-22T01:25:38;14.90;;;9.20;;
77854;SDS011;67046;50.088;14.336;2023-04-22T01:26:10;13.90;;;9.00;;
77854;SDS011;67046;50.088;14.336;2023-04-22T01:27:14;13.30;;;9.50;;
77854;SDS011;67046;50.088;14.336;2023-04-22T01:27:46;12.40;;;8.80;;
77854;SDS011;67046;50.088;14.336;2023-04-22T01:28:18;12.60;;;9.50;;
77854;SDS011;67046;50.088;14.336;2023-04-22T01:28:51;14.10;;;10.00;;
77854;SDS011;67046;50.088;14.336;2023-04-22T01:29:23;14.60;;;9.10;;
77854;SDS011;67046;50.088;14.336;2023-04-22T01:30:27;11.20;;;8.60;;
77854;SDS011;67046;50.088;14.336;2023-04-22T01:30:59;13.50;;;9.50;;
77854;SDS011;67046;50.088;14.336;2023-04-22T01:31:31;11.60;;;8.60;;
77854;SDS011;67046;50.088;14.336;2023-04-22T01:32:04;11.20;;;8.90;;
77854;SDS011;67046;50.088;14.336;2023-04-22T01:32:37;13.20;;;8.70;;
77854;SDS011;67046;50.088;14.336;2023-04-22T01:33:10;12.30;;;8.60;;
77854;SDS011;67046;50.088;14.336;2023-04-22T01:33:43;11.10;;;8.60;;
77854;SDS011;67046;50.088;14.336;2023-04-22T01:34:47;12.00;;;9.00;;
77854;SDS011;67046;50.088;14.336;2023-04-22T01:35:19;12.40;;;8.70;;
77854;SDS011;67046;50.088;14.336;2023-04-22T01:35:51;13.10;;;9.50;;
77854;SDS011;67046;50.088;14.336;2023-04-22T01:36:23;9.90;;;8.70;;
77854;SDS011;67046;50.088;14.336;2023-04-22T01:37:27;15.50;;;8.70;;
77854;SDS011;67046;50.088;14.336;2023-04-22T01:38:00;13.70;;;9.20;;
77854;SDS011;67046;50.088;14.336;2023-04-22T01:38:33;16.80;;;9.30;;
77854;SDS011;67046;50.088;14.336;2023-04-22T01:39:05;12.50;;;9.20;;
77854;SDS011;67046;50.088;14.336;2023-04-22T01:39:37;12.30;;;9.40;;
77854;SDS011;67046;50.088;14.336;2023-04-22T01:40:10;16.90;;;9.40;;
77854;SDS011;67046;50.088;14.336;2023-04-22T01:40:42;12.70;;;8.90;;
77854;SDS011;67046;50.088;14.336;2023-04-22T01:41:14;13.30;;;9.30;;
77854;SDS011;67046;50.088;14.336;2023-04-22T01:42:18;14.00;;;8.60;;
77854;SDS011;67046;50.088;14.336;2023-04-22T01:42:51;14.00;;;9.30;;
77854;SDS011;67046;50.088;14.336;2023-04-22T01:43:23;13.00;;;9.40;;
77854;SDS011;67046;50.088;14.336;2023-04-22T01:44:28;14.10;;;9.20;;
77854;SDS011;67046;50.088;14.336;2023-04-22T01:45:00;13.00;;;9.20;;
77854;SDS011;67046;50.088;14.336;2023-04-22T01:45:32;15.00;;;9.10;;
77854;SDS011;67046;50.088;14.336;2023-04-22T01:46:04;11.30;;;8.90;;
77854;SDS011;67046;50.088;14.336;2023-04-22T01:46:37;14.80;;;9.30;;
77854;SDS011;67046;50.088;14.336;2023-04-22T01:47:09;11.60;;;9.30;;
77854;SDS011;67046;50.088;14.336;2023-04-22T01:47:41;12.60;;;9.70;;
77854;SDS011;67046;50.088;14.336;2023-04-22T01:48:12;12.40;;;9.20;;
77854;SDS011;67046;50.088;14.336;2023-04-22T01:48:44;14.20;;;10.00;;
77854;SDS011;67046;50.088;14.336;2023-04-22T01:49:21;12.40;;;8.80;;
77854;SDS011;67046;50.088;14.336;2023-04-22T01:49:53;12.40;;;9.50;;
77854;SDS011;67046;50.088;14.336;2023-04-22T01:50:25;11.80;;;9.10;;
77854;SDS011;67046;50.088;14.336;2023-04-22T01:50:57;13.90;;;9.90;;
77854;SDS011;67046;50.088;14.336;2023-04-22T01:51:29;11.70;;;9.60;;
77854;SDS011;67046;50.088;14.336;2023-04-22T01:52:02;14.20;;;9.80;;
77854;SDS011;67046;50.088;14.336;2023-04-22T01:52:34;13.60;;;10.30;;
77854;SDS011;67046;50.088;14.336;2023-04-22T01:53:06;16.20;;;10.10;;
77854;SDS011;67046;50.088;14.336;2023-04-22T01:53:38;13.20;;;10.40;;
77854;SDS011;67046;50.088;14.336;2023-04-22T01:54:10;14.40;;;10.10;;
77854;SDS011;67046;50.088;14.336;2023-04-22T01:54:42;13.60;;;9.60;;
77854;SDS011;67046;50.088;14.336;2023-04-22T01:55:14;13.00;;;10.00;;
77854;SDS011;67046;50.088;14.336;2023-04-22T01:55:47;15.90;;;10.10;;
77854;SDS011;67046;50.088;14.336;2023-04-22T01:56:18;13.60;;;10.90;;
77854;SDS011;67046;50.088;14.336;2023-04-22T01:56:54;12.80;;;9.20;;
77854;SDS011;67046;50.088;14.336;2023-04-22T01:57:26;12.00;;;9.20;;
77854;SDS011;67046;50.088;14.336;2023-04-22T01:57:58;14.10;;;9.90;;
77854;SDS011;67046;50.088;14.336;2023-04-22T01:58:32;11.30;;;9.60;;
77854;SDS011;67046;50.088;14.336;2023-04-22T01:59:04;14.20;;;9.60;;
77854;SDS011;67046;50.088;14.336;2023-04-22T01:59:36;12.40;;;9.30;;
77854;SDS011;67046;50.088;14.336;2023-04-22T02:00:40;11.90;;;8.40;;
77854;SDS011;67046;50.088;14.336;2023-04-22T02:01:12;14.10;;;10.30;;
77854;SDS011;67046;50.088;14.336;2023-04-22T02:01:44;15.80;;;10.90;;
77854;SDS011;67046;50.088;14.336;2023-04-22T02:02:16;12.70;;;9.30;;
77854;SDS011;67046;50.088;14.336;2023-04-22T02:02:48;13.40;;;10.20;;
77854;SDS011;67046;50.088;14.336;2023-04-22T02:03:20;12.30;;;9.20;;
77854;SDS011;67046;50.088;14.336;2023-04-22T02:03:52;15.70;;;10.30;;
77854;SDS011;67046;50.088;14.336;2023-04-22T02:04:24;14.30;;;10.30;;
77854;SDS011;67046;50.088;14.336;2023-04-22T02:04:56;14.10;;;10.30;;
77854;SDS011;67046;50.088;14.336;2023-04-22T02:05:28;15.20;;;10.40;;
77854;SDS011;67046;50.088;14.336;2023-04-22T02:06:00;14.90;;;10.70;;
77854;SDS011;67046;50.088;14.336;2023-04-22T02:06:32;13.30;;;10.60;;
77854;SDS011;67046;50.088;14.336;2023-04-22T02:07:04;14.00;;;10.70;;
77854;SDS011;67046;50.088;14.336;2023-04-22T02:07:36;12.40;;;10.40;;
77854;SDS011;67046;50.088;14.336;2023-04-22T02:08:08;13.30;;;10.10;;
77854;SDS011;67046;50.088;14.336;2023-04-22T02:08:41;13.50;;;9.70;;
77854;SDS011;67046;50.088;14.336;2023-04-22T02:09:13;14.30;;;10.10;;
77854;SDS011;67046;50.088;14.336;2023-04-22T02:09:45;13.60;;;10.30;;
77854;SDS011;67046;50.088;14.336;2023-04-22T02:10:17;13.30;;;10.60;;
77854;SDS011;67046;50.088;14.336;2023-04-22T02:10:48;15.20;;;10.60;;
77854;SDS011;67046;50.088;14.336;2023-04-22T02:11:20;14.20;;;10.60;;
77854;SDS011;67046;50.088;14.336;2023-04-22T02:11:52;11.80;;;9.90;;
77854;SDS011;67046;50.088;14.336;2023-04-22T02:12:24;12.60;;;10.00;;
77854;SDS011;67046;50.088;14.336;2023-04-22T02:12:56;13.90;;;10.30;;
77854;SDS011;67046;50.088;14.336;2023-04-22T02:13:35;15.30;;;10.20;;
77854;SDS011;67046;50.088;14.336;2023-04-22T02:14:08;13.80;;;10.20;;
77854;SDS011;67046;50.088;14.336;2023-04-22T02:14:40;13.80;;;10.40;;
77854;SDS011;67046;50.088;14.336;2023-04-22T02:15:12;15.00;;;10.30;;
77854;SDS011;67046;50.088;14.336;2023-04-22T02:15:44;16.10;;;10.60;;
77854;SDS011;67046;50.088;14.336;2023-04-22T02:16:16;13.20;;;10.00;;
77854;SDS011;67046;50.088;14.336;2023-04-22T02:16:48;14.90;;;10.80;;
77854;SDS011;67046;50.088;14.336;2023-04-22T02:17:20;12.40;;;10.40;;
77854;SDS011;67046;50.088;14.336;2023-04-22T02:17:52;13.40;;;10.30;;
77854;SDS011;67046;50.088;14.336;2023-04-22T02:18:25;14.10;;;10.90;;
77854;SDS011;67046;50.088;14.336;2023-04-22T02:18:57;13.40;;;9.90;;
77854;SDS011;67046;50.088;14.336;2023-04-22T02:19:29;13.30;;;10.10;;
77854;SDS011;67046;50.088;14.336;2023-04-22T02:20:01;15.50;;;10.60;;
77854;SDS011;67046;50.088;14.336;2023-04-22T02:20:35;14.30;;;10.40;;
77854;SDS011;67046;50.088;14.336;2023-04-22T02:21:07;14.90;;;10.30;;
77854;SDS011;67046;50.088;14.336;2023-04-22T02:21:39;13.70;;;10.50;;
77854;SDS011;67046;50.088;14.336;2023-04-22T02:22:11;12.60;;;9.90;;
77854;SDS011;67046;50.088;14.336;2023-04-22T02:22:44;14.10;;;10.70;;
77854;SDS011;67046;50.088;14.336;2023-04-22T02:23:16;16.20;;;10.60;;
77854;SDS011;67046;50.088;14.336;2023-04-22T02:23:48;15.40;;;10.60;;
77854;SDS011;67046;50.088;14.336;2023-04-22T02:24:20;14.90;;;10.90;;
77854;SDS011;67046;50.088;14.336;2023-04-22T02:24:52;15.40;;;11.10;;
77854;SDS011;67046;50.088;14.336;2023-04-22T02:25:24;16.10;;;10.70;;
77854;SDS011;67046;50.088;14.336;2023-04-22T02:25:57;16.90;;;10.80;;
77854;SDS011;67046;50.088;14.336;2023-04-22T02:26:29;14.90;;;10.70;;
77854;SDS011;67046;50.088;14.336;2023-04-22T02:27:01;14.60;;;11.10;;
77854;SDS011;67046;50.088;14.336;2023-04-22T02:27:33;15.40;;;11.00;;
77854;SDS011;67046;50.088;14.336;2023-04-22T02:28:05;13.60;;;11.50;;
77854;SDS011;67046;50.088;14.336;2023-04-22T02:28:37;14.10;;;10.50;;
77854;SDS011;67046;50.088;14.336;2023-04-22T02:29:09;14.80;;;11.40;;
77854;SDS011;67046;50.088;14.336;2023-04-22T02:29:41;15.10;;;10.40;;
77854;SDS011;67046;50.088;14.336;2023-04-22T02:30:13;14.30;;;11.40;;
77854;SDS011;67046;50.088;14.336;2023-04-22T02:30:45;15.30;;;11.50;;
77854;SDS011;67046;50.088;14.336;2023-04-22T02:31:17;14.70;;;11.20;;
77854;SDS011;67046;50.088;14.336;2023-04-22T02:31:49;14.60;;;11.20;;
77854;SDS011;67046;50.088;14.336;2023-04-22T02:32:21;15.30;;;11.20;;
77854;SDS011;67046;50.088;14.336;2023-04-22T02:32:53;14.50;;;11.70;;
77854;SDS011;67046;50.088;14.336;2023-04-22T02:33:25;16.70;;;11.50;;
77854;SDS011;67046;50.088;14.336;2023-04-22T02:33:57;15.00;;;11.40;;
77854;SDS011;67046;50.088;14.336;2023-04-22T02:34:29;13.90;;;11.40;;
77854;SDS011;67046;50.088;14.336;2023-04-22T02:35:01;15.80;;;11.40;;
77854;SDS011;67046;50.088;14.336;2023-04-22T02:35:33;15.90;;;11.80;;
77854;SDS011;67046;50.088;14.336;2023-04-22T02:36:05;15.50;;;12.10;;
77854;SDS011;67046;50.088;14.336;2023-04-22T02:36:37;13.80;;;12.20;;
77854;SDS011;67046;50.088;14.336;2023-04-22T02:37:09;16.40;;;12.00;;
77854;SDS011;67046;50.088;14.336;2023-04-22T02:37:41;13.50;;;11.80;;
77854;SDS011;67046;50.088;14.336;2023-04-22T02:38:13;16.60;;;11.70;;
77854;SDS011;67046;50.088;14.336;2023-04-22T02:38:45;17.50;;;12.80;;
77854;SDS011;67046;50.088;14.336;2023-04-22T02:39:17;18.20;;;12.50;;
77854;SDS011;67046;50.088;14.336;2023-04-22T02:39:49;17.20;;;12.80;;
77854;SDS011;67046;50.088;14.336;2023-04-22T02:40:21;14.70;;;11.50;;
77854;SDS011;67046;50.088;14.336;2023-04-22T02:40:53;18.70;;;12.20;;
77854;SDS011;67046;50.088;14.336;2023-04-22T02:41:25;16.70;;;12.50;;
77854;SDS011;67046;50.088;14.336;2023-04-22T02:41:58;16.90;;;11.90;;
77854;SDS011;67046;50.088;14.336;2023-04-22T02:42:30;15.90;;;11.90;;
77854;SDS011;67046;50.088;14.336;2023-04-22T02:43:02;16.20;;;12.70;;
77854;SDS011;67046;50.088;14.336;2023-04-22T02:43:34;20.80;;;13.10;;
77854;SDS011;67046;50.088;14.336;2023-04-22T02:44:06;16.60;;;12.80;;
77854;SDS011;67046;50.088;14.336;2023-04-22T02:44:38;14.80;;;12.40;;
77854;SDS011;67046;50.088;14.336;2023-04-22T02:45:10;15.10;;;11.90;;
77854;SDS011;67046;50.088;14.336;2023-04-22T02:45:42;18.70;;;12.70;;
77854;SDS011;67046;50.088;14.336;2023-04-22T02:46:14;17.20;;;12.00;;
77854;SDS011;67046;50.088;14.336;2023-04-22T02:46:47;20.70;;;12.50;;
77854;SDS011;67046;50.088;14.336;2023-04-22T02:47:19;14.70;;;11.70;;
77854;SDS011;67046;50.088;14.336;2023-04-22T02:47:51;15.10;;;11.70;;
77854;SDS011;67046;50.088;14.336;2023-04-22T02:48:23;17.20;;;12.30;;
77854;SDS011;67046;50.088;14.336;2023-04-22T02:48:55;16.30;;;12.30;;
77854;SDS011;67046;50.088;14.336;2023-04-22T02:49:27;18.50;;;11.60;;
77854;SDS011;67046;50.088;14.336;2023-04-22T02:49:59;15.70;;;12.00;;
77854;SDS011;67046;50.088;14.336;2023-04-22T02:50:31;14.60;;;11.80;;
77854;SDS011;67046;50.088;14.336;2023-04-22T02:51:03;16.50;;;11.50;;
77854;SDS011;67046;50.088;14.336;2023-04-22T02:51:37;12.90;;;10.90;;
77854;SDS011;67046;50.088;14.336;2023-04-22T02:52:12;17.40;;;12.20;;
77854;SDS011;67046;50.088;14.336;2023-04-22T02:52:44;16.80;;;12.40;;
77854;SDS011;67046;50.088;14.336;2023-04-22T02:53:16;15.00;;;11.70;;
77854;SDS011;67046;50.088;14.336;2023-04-22T02:53:48;15.20;;;11.80;;
77854;SDS011;67046;50.088;14.336;2023-04-22T02:54:20;14.30;;;11.70;;
77854;SDS011;67046;50.088;14.336;2023-04-22T02:54:52;15.10;;;12.00;;
77854;SDS011;67046;50.088;14.336;2023-04-22T02:55:24;17.90;;;12.30;;
77854;SDS011;67046;50.088;14.336;2023-04-22T02:55:56;16.60;;;12.40;;
77854;SDS011;67046;50.088;14.336;2023-04-22T02:56:28;15.60;;;11.00;;
77854;SDS011;67046;50.088;14.336;2023-04-22T02:57:02;18.40;;;12.10;;
77854;SDS011;67046;50.088;14.336;2023-04-22T02:57:34;15.80;;;11.90;;
77854;SDS011;67046;50.088;14.336;2023-04-22T02:58:06;14.30;;;11.30;;
77854;SDS011;67046;50.088;14.336;2023-04-22T02:58:39;13.30;;;11.40;;
77854;SDS011;67046;50.088;14.336;2023-04-22T02:59:11;20.90;;;13.00;;
77854;SDS011;67046;50.088;14.336;2023-04-22T02:59:43;16.80;;;13.10;;
77854;SDS011;67046;50.088;14.336;2023-04-22T03:00:15;15.10;;;11.40;;
77854;SDS011;67046;50.088;14.336;2023-04-22T03:00:47;14.00;;;11.40;;
77854;SDS011;67046;50.088;14.336;2023-04-22T03:01:51;16.30;;;11.50;;
77854;SDS011;67046;50.088;14.336;2023-04-22T03:02:23;17.30;;;11.70;;
77854;SDS011;67046;50.088;14.336;2023-04-22T03:02:55;16.10;;;11.40;;
77854;SDS011;67046;50.088;14.336;2023-04-22T03:03:27;13.70;;;11.30;;
77854;SDS011;67046;50.088;14.336;2023-04-22T03:03:59;14.50;;;11.50;;
77854;SDS011;67046;50.088;14.336;2023-04-22T03:04:31;15.80;;;11.40;;
77854;SDS011;67046;50.088;14.336;2023-04-22T03:05:04;16.00;;;11.70;;
77854;SDS011;67046;50.088;14.336;2023-04-22T03:05:36;19.40;;;11.60;;
77854;SDS011;67046;50.088;14.336;2023-04-22T03:06:08;17.30;;;11.90;;
77854;SDS011;67046;50.088;14.336;2023-04-22T03:06:40;16.10;;;11.90;;
77854;SDS011;67046;50.088;14.336;2023-04-22T03:07:12;15.10;;;11.30;;
77854;SDS011;67046;50.088;14.336;2023-04-22T03:07:44;17.50;;;12.10;;
77854;SDS011;67046;50.088;14.336;2023-04-22T03:08:18;15.30;;;12.10;;
77854;SDS011;67046;50.088;14.336;2023-04-22T03:08:50;18.10;;;11.00;;
77854;SDS011;67046;50.088;14.336;2023-04-22T03:09:22;16.50;;;11.70;;
77854;SDS011;67046;50.088;14.336;2023-04-22T03:09:54;20.10;;;12.50;;
77854;SDS011;67046;50.088;14.336;2023-04-22T03:10:26;14.70;;;11.90;;
77854;SDS011;67046;50.088;14.336;2023-04-22T03:10:58;17.50;;;11.90;;
77854;SDS011;67046;50.088;14.336;2023-04-22T03:11:30;15.80;;;11.80;;
77854;SDS011;67046;50.088;14.336;2023-04-22T03:12:02;16.10;;;11.70;;
77854;SDS011;67046;50.088;14.336;2023-04-22T03:13:06;15.90;;;10.30;;
77854;SDS011;67046;50.088;14.336;2023-04-22T03:13:38;14.00;;;11.10;;
77854;SDS011;67046;50.088;14.336;2023-04-22T03:14:10;15.10;;;12.00;;
77854;SDS011;67046;50.088;14.336;2023-04-22T03:14:42;16.20;;;12.20;;
77854;SDS011;67046;50.088;14.336;2023-04-22T03:15:14;15.20;;;12.20;;
77854;SDS011;67046;50.088;14.336;2023-04-22T03:15:46;13.10;;;11.70;;
77854;SDS011;67046;50.088;14.336;2023-04-22T03:16:18;17.40;;;12.10;;
77854;SDS011;67046;50.088;14.336;2023-04-22T03:16:50;15.90;;;11.40;;